sensor_id;sensor_type;location;lat;lon;timestamp;P1;durP1;ratioP1;P2;durP2;ratioP2
60344;SDS011;46188;52.324;8.032;2023-03-14T00:01:07;5.53;;;2.00;;
60344;SDS011;46188;52.324;8.032;2023-03-14T00:03:43;5.72;;;2.47;;
60344;SDS011;46188;52.324;8.032;2023-03-14T00:06:09;5.53;;;2.10;;
60344;SDS011;46188;52.324;8.032;2023-03-14T00:08:35;5.25;;;2.72;;
60344;SDS011;46188;52.324;8.032;2023-03-14T00:11:07;5.63;;;2.88;;
60344;SDS011;46188;52.324;8.032;2023-03-14T00:13:34;7.75;;;2.30;;
60344;SDS011;46188;52.324;8.032;2023-03-14T00:16:03;4.25;;;2.10;;
60344;SDS011;46188;52.324;8.032;2023-03-14T00:18:33;8.40;;;2.88;;
60344;SDS011;46188;52.324;8.032;2023-03-14T00:20:58;7.38;;;2.47;;
60344;SDS011;46188;52.324;8.032;2023-03-14T00:23:24;7.13;;;2.00;;
60344;SDS011;46188;52.324;8.032;2023-03-14T00:25:50;5.90;;;2.10;;
60344;SDS011;46188;52.324;8.032;2023-03-14T00:28:15;7.10;;;2.20;;
60344;SDS011;46188;52.324;8.032;2023-03-14T00:30:40;4.03;;;1.63;;
60344;SDS011;46188;52.324;8.032;2023-03-14T00:33:05;9.40;;;2.42;;
60344;SDS011;46188;52.324;8.032;2023-03-14T00:35:31;5.07;;;1.95;;
60344;SDS011;46188;52.324;8.032;2023-03-14T00:37:56;8.70;;;3.20;;
60344;SDS011;46188;52.324;8.032;2023-03-14T00:40:21;9.73;;;2.60;;
60344;SDS011;46188;52.324;8.032;2023-03-14T00:42:46;8.15;;;2.72;;
60344;SDS011;46188;52.324;8.032;2023-03-14T00:45:12;7.55;;;2.22;;
60344;SDS011;46188;52.324;8.032;2023-03-14T00:47:37;4.93;;;2.03;;
60344;SDS011;46188;52.324;8.032;2023-03-14T00:50:02;9.15;;;2.30;;
60344;SDS011;46188;52.324;8.032;2023-03-14T00:52:28;5.32;;;2.20;;
60344;SDS011;46188;52.324;8.032;2023-03-14T00:54:53;5.28;;;2.05;;
60344;SDS011;46188;52.324;8.032;2023-03-14T00:57:18;6.40;;;1.90;;
60344;SDS011;46188;52.324;8.032;2023-03-14T00:59:43;7.15;;;1.98;;
60344;SDS011;46188;52.324;8.032;2023-03-14T01:02:09;4.65;;;1.88;;
60344;SDS011;46188;52.324;8.032;2023-03-14T01:04:34;7.40;;;2.00;;
60344;SDS011;46188;52.324;8.032;2023-03-14T01:06:59;5.45;;;2.30;;
60344;SDS011;46188;52.324;8.032;2023-03-14T01:09:25;5.22;;;1.88;;
60344;SDS011;46188;52.324;8.032;2023-03-14T01:11:50;7.28;;;2.20;;
60344;SDS011;46188;52.324;8.032;2023-03-14T01:14:15;5.20;;;1.88;;
60344;SDS011;46188;52.324;8.032;2023-03-14T01:16:40;7.15;;;2.10;;
60344;SDS011;46188;52.324;8.032;2023-03-14T01:19:06;6.65;;;1.75;;
60344;SDS011;46188;52.324;8.032;2023-03-14T01:21:32;4.70;;;1.70;;
60344;SDS011;46188;52.324;8.032;2023-03-14T01:23:59;5.18;;;2.30;;
60344;SDS011;46188;52.324;8.032;2023-03-14T01:26:27;9.63;;;2.72;;
60344;SDS011;46188;52.324;8.032;2023-03-14T01:28:55;5.60;;;1.70;;
60344;SDS011;46188;52.324;8.032;2023-03-14T01:31:21;6.70;;;2.00;;
60344;SDS011;46188;52.324;8.032;2023-03-14T01:33:47;4.55;;;1.60;;
60344;SDS011;46188;52.324;8.032;2023-03-14T01:36:13;5.75;;;2.05;;
60344;SDS011;46188;52.324;8.032;2023-03-14T01:38:38;7.78;;;2.05;;
60344;SDS011;46188;52.324;8.032;2023-03-14T01:41:05;7.15;;;1.65;;
60344;SDS011;46188;52.324;8.032;2023-03-14T01:43:31;9.50;;;2.17;;
60344;SDS011;46188;52.324;8.032;2023-03-14T01:46:06;7.43;;;1.90;;
60344;SDS011;46188;52.324;8.032;2023-03-14T01:48:54;8.13;;;2.47;;
60344;SDS011;46188;52.324;8.032;2023-03-14T02:00:01;4.07;;;1.50;;
60344;SDS011;46188;52.324;8.032;2023-03-14T02:02:36;6.47;;;3.03;;
60344;SDS011;46188;52.324;8.032;2023-03-14T02:05:03;5.10;;;1.50;;
60344;SDS011;46188;52.324;8.032;2023-03-14T02:07:33;5.18;;;1.65;;
60344;SDS011;46188;52.324;8.032;2023-03-14T02:10:04;5.65;;;1.90;;
60344;SDS011;46188;52.324;8.032;2023-03-14T02:12:30;4.65;;;1.52;;
60344;SDS011;46188;52.324;8.032;2023-03-14T02:14:57;6.55;;;2.40;;
60344;SDS011;46188;52.324;8.032;2023-03-14T02:17:22;3.80;;;2.10;;
60344;SDS011;46188;52.324;8.032;2023-03-14T02:22:51;7.68;;;2.10;;
60344;SDS011;46188;52.324;8.032;2023-03-14T02:28:08;4.80;;;2.10;;
60344;SDS011;46188;52.324;8.032;2023-03-14T02:30:35;5.13;;;2.38;;
60344;SDS011;46188;52.324;8.032;2023-03-14T02:33:04;8.68;;;2.65;;
60344;SDS011;46188;52.324;8.032;2023-03-14T02:35:41;5.25;;;2.10;;
60344;SDS011;46188;52.324;8.032;2023-03-14T02:38:24;7.82;;;2.67;;
60344;SDS011;46188;52.324;8.032;2023-03-14T02:41:10;8.27;;;2.17;;
60344;SDS011;46188;52.324;8.032;2023-03-14T02:43:35;4.43;;;2.30;;
60344;SDS011;46188;52.324;8.032;2023-03-14T02:46:01;5.53;;;2.33;;
60344;SDS011;46188;52.324;8.032;2023-03-14T02:48:30;6.65;;;2.42;;
60344;SDS011;46188;52.324;8.032;2023-03-14T02:50:59;7.75;;;2.10;;
60344;SDS011;46188;52.324;8.032;2023-03-14T02:53:27;4.00;;;2.42;;
60344;SDS011;46188;52.324;8.032;2023-03-14T02:55:54;8.38;;;2.80;;
60344;SDS011;46188;52.324;8.032;2023-03-14T02:58:20;7.47;;;2.35;;
60344;SDS011;46188;52.324;8.032;2023-03-14T03:00:45;7.38;;;2.50;;
60344;SDS011;46188;52.324;8.032;2023-03-14T03:03:11;6.38;;;1.98;;
60344;SDS011;46188;52.324;8.032;2023-03-14T03:05:36;5.53;;;2.15;;
60344;SDS011;46188;52.324;8.032;2023-03-14T03:08:02;7.15;;;2.13;;
60344;SDS011;46188;52.324;8.032;2023-03-14T03:10:27;4.07;;;1.83;;
60344;SDS011;46188;52.324;8.032;2023-03-14T03:12:53;4.53;;;2.25;;
60344;SDS011;46188;52.324;8.032;2023-03-14T03:15:18;4.55;;;1.98;;
60344;SDS011;46188;52.324;8.032;2023-03-14T03:17:43;6.85;;;1.85;;
60344;SDS011;46188;52.324;8.032;2023-03-14T03:20:09;7.78;;;2.72;;
60344;SDS011;46188;52.324;8.032;2023-03-14T03:22:35;4.28;;;1.98;;
60344;SDS011;46188;52.324;8.032;2023-03-14T03:25:01;5.78;;;2.15;;
60344;SDS011;46188;52.324;8.032;2023-03-14T03:27:29;5.45;;;2.05;;
60344;SDS011;46188;52.324;8.032;2023-03-14T03:29:56;4.88;;;1.70;;
60344;SDS011;46188;52.324;8.032;2023-03-14T03:32:21;8.00;;;2.03;;
60344;SDS011;46188;52.324;8.032;2023-03-14T03:34:46;6.10;;;1.77;;
60344;SDS011;46188;52.324;8.032;2023-03-14T03:37:11;5.30;;;1.50;;
60344;SDS011;46188;52.324;8.032;2023-03-14T03:39:36;5.13;;;2.00;;
60344;SDS011;46188;52.324;8.032;2023-03-14T03:42:02;5.22;;;1.73;;
60344;SDS011;46188;52.324;8.032;2023-03-14T03:44:27;5.53;;;2.08;;
60344;SDS011;46188;52.324;8.032;2023-03-14T03:46:52;3.45;;;1.50;;
60344;SDS011;46188;52.324;8.032;2023-03-14T03:49:18;4.75;;;1.38;;
60344;SDS011;46188;52.324;8.032;2023-03-14T03:51:43;5.15;;;1.73;;
60344;SDS011;46188;52.324;8.032;2023-03-14T03:54:08;5.93;;;2.05;;
60344;SDS011;46188;52.324;8.032;2023-03-14T03:56:33;4.63;;;1.80;;
60344;SDS011;46188;52.324;8.032;2023-03-14T03:58:59;5.18;;;2.00;;
60344;SDS011;46188;52.324;8.032;2023-03-14T04:01:24;7.28;;;1.90;;
60344;SDS011;46188;52.324;8.032;2023-03-14T04:03:49;4.38;;;1.95;;
60344;SDS011;46188;52.324;8.032;2023-03-14T04:06:15;4.15;;;1.92;;
60344;SDS011;46188;52.324;8.032;2023-03-14T04:08:40;4.13;;;1.98;;
60344;SDS011;46188;52.324;8.032;2023-03-14T04:11:06;5.72;;;1.77;;
60344;SDS011;46188;52.324;8.032;2023-03-14T04:13:31;3.13;;;1.70;;
60344;SDS011;46188;52.324;8.032;2023-03-14T04:15:57;4.65;;;2.08;;
60344;SDS011;46188;52.324;8.032;2023-03-14T04:18:22;3.15;;;1.60;;
60344;SDS011;46188;52.324;8.032;2023-03-14T04:20:53;7.35;;;1.88;;
60344;SDS011;46188;52.324;8.032;2023-03-14T04:23:20;4.18;;;1.42;;
60344;SDS011;46188;52.324;8.032;2023-03-14T04:25:46;6.90;;;1.85;;
60344;SDS011;46188;52.324;8.032;2023-03-14T04:28:11;5.50;;;1.85;;
60344;SDS011;46188;52.324;8.032;2023-03-14T04:30:37;5.32;;;1.88;;
60344;SDS011;46188;52.324;8.032;2023-03-14T04:33:02;4.43;;;1.88;;
60344;SDS011;46188;52.324;8.032;2023-03-14T04:35:29;6.63;;;2.20;;
60344;SDS011;46188;52.324;8.032;2023-03-14T04:37:55;5.65;;;1.70;;
60344;SDS011;46188;52.324;8.032;2023-03-14T04:40:20;6.35;;;1.63;;
60344;SDS011;46188;52.324;8.032;2023-03-14T04:42:45;5.22;;;2.03;;
60344;SDS011;46188;52.324;8.032;2023-03-14T04:45:11;7.20;;;2.63;;
60344;SDS011;46188;52.324;8.032;2023-03-14T04:47:36;7.60;;;2.42;;
60344;SDS011;46188;52.324;8.032;2023-03-14T04:50:01;8.73;;;2.60;;
60344;SDS011;46188;52.324;8.032;2023-03-14T04:52:27;5.78;;;2.75;;
60344;SDS011;46188;52.324;8.032;2023-03-14T04:54:52;5.60;;;2.05;;
60344;SDS011;46188;52.324;8.032;2023-03-14T04:57:17;9.63;;;3.22;;
60344;SDS011;46188;52.324;8.032;2023-03-14T04:59:43;7.63;;;3.17;;
60344;SDS011;46188;52.324;8.032;2023-03-14T05:02:08;9.02;;;3.00;;
60344;SDS011;46188;52.324;8.032;2023-03-14T05:04:33;8.18;;;2.95;;
60344;SDS011;46188;52.324;8.032;2023-03-14T05:06:59;9.07;;;3.50;;
60344;SDS011;46188;52.324;8.032;2023-03-14T05:09:25;9.40;;;3.63;;
60344;SDS011;46188;52.324;8.032;2023-03-14T05:11:50;7.03;;;3.58;;
60344;SDS011;46188;52.324;8.032;2023-03-14T05:14:16;8.25;;;4.13;;
60344;SDS011;46188;52.324;8.032;2023-03-14T05:16:41;6.63;;;3.28;;
60344;SDS011;46188;52.324;8.032;2023-03-14T05:19:06;16.38;;;4.97;;
60344;SDS011;46188;52.324;8.032;2023-03-14T05:21:32;8.98;;;3.70;;
60344;SDS011;46188;52.324;8.032;2023-03-14T05:23:57;8.00;;;3.88;;
60344;SDS011;46188;52.324;8.032;2023-03-14T05:26:22;11.65;;;4.32;;
60344;SDS011;46188;52.324;8.032;2023-03-14T05:28:48;9.68;;;4.10;;
60344;SDS011;46188;52.324;8.032;2023-03-14T05:31:13;8.38;;;4.05;;
60344;SDS011;46188;52.324;8.032;2023-03-14T05:33:39;5.60;;;3.92;;
60344;SDS011;46188;52.324;8.032;2023-03-14T05:36:05;10.10;;;3.90;;
60344;SDS011;46188;52.324;8.032;2023-03-14T05:38:30;5.95;;;4.28;;
60344;SDS011;46188;52.324;8.032;2023-03-14T05:40:55;10.90;;;4.28;;
60344;SDS011;46188;52.324;8.032;2023-03-14T05:43:21;10.82;;;4.97;;
60344;SDS011;46188;52.324;8.032;2023-03-14T05:45:46;10.10;;;4.65;;
60344;SDS011;46188;52.324;8.032;2023-03-14T05:48:11;7.10;;;4.25;;
60344;SDS011;46188;52.324;8.032;2023-03-14T05:50:36;8.27;;;5.40;;
60344;SDS011;46188;52.324;8.032;2023-03-14T05:53:02;7.68;;;4.40;;
60344;SDS011;46188;52.324;8.032;2023-03-14T05:55:27;13.05;;;4.32;;
60344;SDS011;46188;52.324;8.032;2023-03-14T05:57:53;7.53;;;4.82;;
60344;SDS011;46188;52.324;8.032;2023-03-14T06:00:19;9.82;;;4.22;;
60344;SDS011;46188;52.324;8.032;2023-03-14T06:02:44;12.57;;;4.82;;
60344;SDS011;46188;52.324;8.032;2023-03-14T06:05:09;9.65;;;4.43;;
60344;SDS011;46188;52.324;8.032;2023-03-14T06:07:35;9.63;;;4.28;;
60344;SDS011;46188;52.324;8.032;2023-03-14T06:10:00;9.15;;;4.03;;
60344;SDS011;46188;52.324;8.032;2023-03-14T06:12:25;10.70;;;4.45;;
60344;SDS011;46188;52.324;8.032;2023-03-14T06:14:50;13.90;;;4.70;;
60344;SDS011;46188;52.324;8.032;2023-03-14T06:17:16;8.30;;;3.42;;
60344;SDS011;46188;52.324;8.032;2023-03-14T06:19:41;10.38;;;4.50;;
60344;SDS011;46188;52.324;8.032;2023-03-14T06:22:06;7.15;;;3.63;;
60344;SDS011;46188;52.324;8.032;2023-03-14T06:24:31;6.70;;;3.13;;
60344;SDS011;46188;52.324;8.032;2023-03-14T06:26:57;7.55;;;3.53;;
60344;SDS011;46188;52.324;8.032;2023-03-14T06:29:22;6.72;;;3.65;;
60344;SDS011;46188;52.324;8.032;2023-03-14T06:31:47;5.28;;;2.92;;
60344;SDS011;46188;52.324;8.032;2023-03-14T06:34:13;6.72;;;3.03;;
60344;SDS011;46188;52.324;8.032;2023-03-14T06:36:38;5.75;;;2.42;;
60344;SDS011;46188;52.324;8.032;2023-03-14T06:39:03;6.32;;;2.42;;
60344;SDS011;46188;52.324;8.032;2023-03-14T06:41:29;5.90;;;2.40;;
60344;SDS011;46188;52.324;8.032;2023-03-14T06:43:54;3.75;;;1.83;;
60344;SDS011;46188;52.324;8.032;2023-03-14T06:46:19;9.88;;;2.50;;
60344;SDS011;46188;52.324;8.032;2023-03-14T06:48:44;4.75;;;1.95;;
60344;SDS011;46188;52.324;8.032;2023-03-14T06:51:10;5.20;;;2.30;;
60344;SDS011;46188;52.324;8.032;2023-03-14T06:53:35;4.38;;;1.92;;
60344;SDS011;46188;52.324;8.032;2023-03-14T06:56:00;4.40;;;1.60;;
60344;SDS011;46188;52.324;8.032;2023-03-14T06:58:25;3.97;;;1.80;;
60344;SDS011;46188;52.324;8.032;2023-03-14T07:00:52;4.85;;;1.67;;
60344;SDS011;46188;52.324;8.032;2023-03-14T07:03:18;6.32;;;1.70;;
60344;SDS011;46188;52.324;8.032;2023-03-14T07:05:43;2.85;;;1.60;;
60344;SDS011;46188;52.324;8.032;2023-03-14T07:08:08;4.85;;;1.58;;
60344;SDS011;46188;52.324;8.032;2023-03-14T07:10:34;4.43;;;1.50;;
60344;SDS011;46188;52.324;8.032;2023-03-14T07:12:59;3.30;;;1.70;;
60344;SDS011;46188;52.324;8.032;2023-03-14T07:15:25;3.20;;;1.35;;
60344;SDS011;46188;52.324;8.032;2023-03-14T07:17:50;2.38;;;1.33;;
60344;SDS011;46188;52.324;8.032;2023-03-14T07:20:15;4.45;;;1.55;;
60344;SDS011;46188;52.324;8.032;2023-03-14T07:22:40;3.83;;;1.35;;
60344;SDS011;46188;52.324;8.032;2023-03-14T07:25:06;2.42;;;1.55;;
60344;SDS011;46188;52.324;8.032;2023-03-14T07:27:31;6.95;;;1.60;;
60344;SDS011;46188;52.324;8.032;2023-03-14T07:29:57;6.53;;;1.60;;
60344;SDS011;46188;52.324;8.032;2023-03-14T07:32:22;3.13;;;1.40;;
60344;SDS011;46188;52.324;8.032;2023-03-14T07:34:47;2.70;;;1.50;;
60344;SDS011;46188;52.324;8.032;2023-03-14T07:37:12;4.72;;;1.88;;
60344;SDS011;46188;52.324;8.032;2023-03-14T07:39:39;2.42;;;1.38;;
60344;SDS011;46188;52.324;8.032;2023-03-14T07:42:04;2.25;;;1.48;;
60344;SDS011;46188;52.324;8.032;2023-03-14T07:44:29;3.28;;;1.50;;
60344;SDS011;46188;52.324;8.032;2023-03-14T07:46:54;5.43;;;1.88;;
60344;SDS011;46188;52.324;8.032;2023-03-14T07:49:20;2.40;;;1.52;;
60344;SDS011;46188;52.324;8.032;2023-03-14T07:51:48;2.53;;;1.85;;
60344;SDS011;46188;52.324;8.032;2023-03-14T07:54:14;4.13;;;1.80;;
60344;SDS011;46188;52.324;8.032;2023-03-14T07:56:39;2.80;;;2.05;;
60344;SDS011;46188;52.324;8.032;2023-03-14T07:59:05;4.60;;;1.80;;
60344;SDS011;46188;52.324;8.032;2023-03-14T08:01:30;2.67;;;1.98;;
60344;SDS011;46188;52.324;8.032;2023-03-14T08:03:55;6.13;;;2.20;;
60344;SDS011;46188;52.324;8.032;2023-03-14T08:06:20;2.85;;;2.33;;
60344;SDS011;46188;52.324;8.032;2023-03-14T08:08:46;3.53;;;2.80;;
60344;SDS011;46188;52.324;8.032;2023-03-14T08:11:11;3.38;;;2.60;;
60344;SDS011;46188;52.324;8.032;2023-03-14T08:13:37;4.68;;;3.00;;
60344;SDS011;46188;52.324;8.032;2023-03-14T08:16:03;3.17;;;2.55;;
60344;SDS011;46188;52.324;8.032;2023-03-14T08:18:29;4.57;;;2.55;;
60344;SDS011;46188;52.324;8.032;2023-03-14T08:20:54;3.47;;;2.53;;
60344;SDS011;46188;52.324;8.032;2023-03-14T08:23:19;4.53;;;3.30;;
60344;SDS011;46188;52.324;8.032;2023-03-14T08:25:45;4.47;;;3.00;;
60344;SDS011;46188;52.324;8.032;2023-03-14T08:28:10;5.03;;;3.20;;
60344;SDS011;46188;52.324;8.032;2023-03-14T08:30:35;3.08;;;2.40;;
60344;SDS011;46188;52.324;8.032;2023-03-14T08:33:00;4.78;;;3.03;;
60344;SDS011;46188;52.324;8.032;2023-03-14T08:35:26;4.15;;;3.20;;
60344;SDS011;46188;52.324;8.032;2023-03-14T08:37:52;3.58;;;3.17;;
60344;SDS011;46188;52.324;8.032;2023-03-14T08:40:17;3.00;;;2.63;;
60344;SDS011;46188;52.324;8.032;2023-03-14T08:42:43;4.00;;;2.88;;
60344;SDS011;46188;52.324;8.032;2023-03-14T08:45:08;3.65;;;3.00;;
60344;SDS011;46188;52.324;8.032;2023-03-14T08:47:37;4.75;;;2.97;;
60344;SDS011;46188;52.324;8.032;2023-03-14T08:50:03;3.70;;;3.28;;
60344;SDS011;46188;52.324;8.032;2023-03-14T08:52:29;4.85;;;3.63;;
60344;SDS011;46188;52.324;8.032;2023-03-14T08:54:55;4.03;;;3.40;;
60344;SDS011;46188;52.324;8.032;2023-03-14T08:57:21;5.15;;;3.15;;
60344;SDS011;46188;52.324;8.032;2023-03-14T08:59:52;3.88;;;2.75;;
60344;SDS011;46188;52.324;8.032;2023-03-14T09:02:18;4.55;;;2.88;;
60344;SDS011;46188;52.324;8.032;2023-03-14T09:04:43;2.80;;;2.40;;
60344;SDS011;46188;52.324;8.032;2023-03-14T09:07:08;2.80;;;2.45;;
60344;SDS011;46188;52.324;8.032;2023-03-14T09:09:33;3.05;;;2.35;;
60344;SDS011;46188;52.324;8.032;2023-03-14T09:11:59;3.03;;;2.22;;
60344;SDS011;46188;52.324;8.032;2023-03-14T09:14:24;3.03;;;2.28;;
60344;SDS011;46188;52.324;8.032;2023-03-14T09:16:49;2.63;;;2.03;;
60344;SDS011;46188;52.324;8.032;2023-03-14T09:19:15;2.22;;;1.83;;
60344;SDS011;46188;52.324;8.032;2023-03-14T09:21:41;2.22;;;1.40;;
60344;SDS011;46188;52.324;8.032;2023-03-14T09:24:06;2.08;;;1.13;;
60344;SDS011;46188;52.324;8.032;2023-03-14T09:26:31;1.85;;;1.10;;
60344;SDS011;46188;52.324;8.032;2023-03-14T09:28:57;2.15;;;1.00;;
60344;SDS011;46188;52.324;8.032;2023-03-14T09:31:22;1.67;;;1.00;;
60344;SDS011;46188;52.324;8.032;2023-03-14T09:33:47;2.63;;;0.88;;
60344;SDS011;46188;52.324;8.032;2023-03-14T09:36:13;2.25;;;1.00;;
60344;SDS011;46188;52.324;8.032;2023-03-14T09:38:38;1.55;;;0.70;;
60344;SDS011;46188;52.324;8.032;2023-03-14T09:41:09;1.00;;;0.70;;
60344;SDS011;46188;52.324;8.032;2023-03-14T09:43:38;1.73;;;0.70;;
60344;SDS011;46188;52.324;8.032;2023-03-14T09:46:05;1.00;;;0.80;;
60344;SDS011;46188;52.324;8.032;2023-03-14T09:48:33;1.20;;;0.70;;
60344;SDS011;46188;52.324;8.032;2023-03-14T09:51:01;1.10;;;0.60;;
60344;SDS011;46188;52.324;8.032;2023-03-14T09:53:38;1.85;;;0.90;;
60344;SDS011;46188;52.324;8.032;2023-03-14T09:56:13;2.53;;;0.88;;
60344;SDS011;46188;52.324;8.032;2023-03-14T09:58:43;1.52;;;0.68;;
60344;SDS011;46188;52.324;8.032;2023-03-14T10:01:14;4.38;;;0.80;;
60344;SDS011;46188;52.324;8.032;2023-03-14T10:03:42;1.90;;;0.70;;
60344;SDS011;46188;52.324;8.032;2023-03-14T10:06:13;1.33;;;0.65;;
60344;SDS011;46188;52.324;8.032;2023-03-14T10:08:42;1.70;;;0.65;;
60344;SDS011;46188;52.324;8.032;2023-03-14T10:11:13;1.40;;;0.80;;
60344;SDS011;46188;52.324;8.032;2023-03-14T10:13:48;1.58;;;0.73;;
60344;SDS011;46188;52.324;8.032;2023-03-14T10:16:14;1.30;;;0.55;;
60344;SDS011;46188;52.324;8.032;2023-03-14T10:18:39;1.85;;;0.75;;
60344;SDS011;46188;52.324;8.032;2023-03-14T10:21:28;1.50;;;0.55;;
60344;SDS011;46188;52.324;8.032;2023-03-14T10:23:54;1.00;;;0.50;;
60344;SDS011;46188;52.324;8.032;2023-03-14T10:26:33;1.77;;;0.68;;
60344;SDS011;46188;52.324;8.032;2023-03-14T10:29:03;0.45;;;0.45;;
60344;SDS011;46188;52.324;8.032;2023-03-14T10:31:59;0.40;;;0.40;;
60344;SDS011;46188;52.324;8.032;2023-03-14T10:34:30;0.70;;;0.50;;
60344;SDS011;46188;52.324;8.032;2023-03-14T10:36:58;1.60;;;0.60;;
60344;SDS011;46188;52.324;8.032;2023-03-14T10:39:30;3.15;;;0.50;;
60344;SDS011;46188;52.324;8.032;2023-03-14T10:42:24;1.35;;;0.50;;
60344;SDS011;46188;52.324;8.032;2023-03-14T10:44:55;0.80;;;0.60;;
60344;SDS011;46188;52.324;8.032;2023-03-14T10:47:23;0.82;;;0.60;;
60344;SDS011;46188;52.324;8.032;2023-03-14T10:49:51;1.23;;;0.77;;
60344;SDS011;46188;52.324;8.032;2023-03-14T10:52:21;1.10;;;0.60;;
60344;SDS011;46188;52.324;8.032;2023-03-14T10:54:58;2.05;;;0.70;;
60344;SDS011;46188;52.324;8.032;2023-03-14T10:57:27;1.95;;;0.60;;
60344;SDS011;46188;52.324;8.032;2023-03-14T10:59:53;2.60;;;0.70;;
60344;SDS011;46188;52.324;8.032;2023-03-14T11:02:46;2.25;;;0.60;;
60344;SDS011;46188;52.324;8.032;2023-03-14T11:05:34;1.23;;;0.60;;
60344;SDS011;46188;52.324;8.032;2023-03-14T11:08:11;1.20;;;0.70;;
60344;SDS011;46188;52.324;8.032;2023-03-14T11:10:51;1.73;;;0.70;;
60344;SDS011;46188;52.324;8.032;2023-03-14T11:13:24;1.83;;;0.88;;
60344;SDS011;46188;52.324;8.032;2023-03-14T11:15:57;1.85;;;0.82;;
60344;SDS011;46188;52.324;8.032;2023-03-14T11:18:48;1.65;;;0.70;;
60344;SDS011;46188;52.324;8.032;2023-03-14T11:21:32;2.65;;;0.77;;
60344;SDS011;46188;52.324;8.032;2023-03-14T11:24:08;4.25;;;1.10;;
60344;SDS011;46188;52.324;8.032;2023-03-14T11:29:41;4.63;;;0.82;;
60344;SDS011;46188;52.324;8.032;2023-03-14T11:35:20;4.35;;;0.95;;
60344;SDS011;46188;52.324;8.032;2023-03-14T11:37:54;4.15;;;1.08;;
60344;SDS011;46188;52.324;8.032;2023-03-14T11:40:28;5.63;;;1.35;;
60344;SDS011;46188;52.324;8.032;2023-03-14T11:43:04;5.70;;;1.40;;
60344;SDS011;46188;52.324;8.032;2023-03-14T11:45:45;4.47;;;1.20;;
60344;SDS011;46188;52.324;8.032;2023-03-14T11:51:02;3.10;;;1.15;;
60344;SDS011;46188;52.324;8.032;2023-03-14T11:56:38;5.05;;;1.27;;
60344;SDS011;46188;52.324;8.032;2023-03-14T11:59:13;7.60;;;1.55;;
60344;SDS011;46188;52.324;8.032;2023-03-14T12:01:52;6.85;;;1.75;;
60344;SDS011;46188;52.324;8.032;2023-03-14T12:04:25;6.32;;;1.30;;
60344;SDS011;46188;52.324;8.032;2023-03-14T12:07:24;5.25;;;1.20;;
60344;SDS011;46188;52.324;8.032;2023-03-14T12:09:58;6.95;;;1.63;;
60344;SDS011;46188;52.324;8.032;2023-03-14T12:12:24;4.93;;;1.20;;
60344;SDS011;46188;52.324;8.032;2023-03-14T12:14:56;17.95;;;2.15;;
60344;SDS011;46188;52.324;8.032;2023-03-14T12:17:37;5.55;;;1.73;;
60344;SDS011;46188;52.324;8.032;2023-03-14T12:20:17;7.75;;;2.05;;
60344;SDS011;46188;52.324;8.032;2023-03-14T12:22:50;9.45;;;2.50;;
60344;SDS011;46188;52.324;8.032;2023-03-14T12:30:23;7.82;;;2.15;;
60344;SDS011;46188;52.324;8.032;2023-03-14T12:40:59;10.35;;;1.98;;
60344;SDS011;46188;52.324;8.032;2023-03-14T12:43:31;10.43;;;2.55;;
60344;SDS011;46188;52.324;8.032;2023-03-14T12:48:42;7.72;;;2.03;;
60344;SDS011;46188;52.324;8.032;2023-03-14T12:56:27;7.50;;;2.10;;
60344;SDS011;46188;52.324;8.032;2023-03-14T13:01:32;14.40;;;2.72;;
60344;SDS011;46188;52.324;8.032;2023-03-14T13:04:02;7.50;;;2.17;;
60344;SDS011;46188;52.324;8.032;2023-03-14T13:06:52;9.10;;;2.22;;
60344;SDS011;46188;52.324;8.032;2023-03-14T13:12:01;11.68;;;1.80;;
60344;SDS011;46188;52.324;8.032;2023-03-14T13:14:29;7.78;;;2.95;;
60344;SDS011;46188;52.324;8.032;2023-03-14T13:16:58;11.48;;;2.85;;
60344;SDS011;46188;52.324;8.032;2023-03-14T13:19:28;14.25;;;2.72;;
60344;SDS011;46188;52.324;8.032;2023-03-14T13:21:56;10.70;;;2.25;;
60344;SDS011;46188;52.324;8.032;2023-03-14T13:24:26;10.82;;;2.67;;
60344;SDS011;46188;52.324;8.032;2023-03-14T13:26:56;9.15;;;3.33;;
60344;SDS011;46188;52.324;8.032;2023-03-14T13:29:28;10.35;;;2.63;;
60344;SDS011;46188;52.324;8.032;2023-03-14T13:32:00;7.43;;;2.28;;
60344;SDS011;46188;52.324;8.032;2023-03-14T13:34:26;11.23;;;2.35;;
60344;SDS011;46188;52.324;8.032;2023-03-14T13:36:54;7.22;;;2.20;;
60344;SDS011;46188;52.324;8.032;2023-03-14T13:39:20;10.57;;;3.20;;
60344;SDS011;46188;52.324;8.032;2023-03-14T13:41:49;6.57;;;1.85;;
60344;SDS011;46188;52.324;8.032;2023-03-14T13:44:16;9.68;;;2.10;;
60344;SDS011;46188;52.324;8.032;2023-03-14T13:46:52;9.05;;;2.10;;
60344;SDS011;46188;52.324;8.032;2023-03-14T13:49:24;6.20;;;1.85;;
60344;SDS011;46188;52.324;8.032;2023-03-14T13:51:50;14.35;;;2.13;;
60344;SDS011;46188;52.324;8.032;2023-03-14T13:54:19;5.25;;;1.52;;
60344;SDS011;46188;52.324;8.032;2023-03-14T13:56:46;5.65;;;2.25;;
60344;SDS011;46188;52.324;8.032;2023-03-14T13:59:21;3.67;;;1.13;;
60344;SDS011;46188;52.324;8.032;2023-03-14T14:01:50;11.10;;;2.25;;
60344;SDS011;46188;52.324;8.032;2023-03-14T14:04:18;8.43;;;2.88;;
60344;SDS011;46188;52.324;8.032;2023-03-14T14:06:50;6.78;;;1.65;;
60344;SDS011;46188;52.324;8.032;2023-03-14T14:09:23;9.90;;;2.95;;
60344;SDS011;46188;52.324;8.032;2023-03-14T14:11:52;7.88;;;2.25;;
60344;SDS011;46188;52.324;8.032;2023-03-14T14:17:04;5.05;;;1.38;;
60344;SDS011;46188;52.324;8.032;2023-03-14T14:19:32;5.43;;;1.70;;
60344;SDS011;46188;52.324;8.032;2023-03-14T14:22:00;6.75;;;1.67;;
60344;SDS011;46188;52.324;8.032;2023-03-14T14:24:28;3.80;;;1.38;;
60344;SDS011;46188;52.324;8.032;2023-03-14T14:27:00;4.47;;;1.50;;
60344;SDS011;46188;52.324;8.032;2023-03-14T14:29:35;3.65;;;1.77;;
60344;SDS011;46188;52.324;8.032;2023-03-14T14:34:37;8.43;;;1.92;;
60344;SDS011;46188;52.324;8.032;2023-03-14T14:37:04;2.38;;;1.23;;
60344;SDS011;46188;52.324;8.032;2023-03-14T14:39:30;4.72;;;1.13;;
60344;SDS011;46188;52.324;8.032;2023-03-14T14:41:56;7.32;;;1.45;;
60344;SDS011;46188;52.324;8.032;2023-03-14T14:44:27;10.43;;;2.28;;
60344;SDS011;46188;52.324;8.032;2023-03-14T14:46:55;5.20;;;1.40;;
60344;SDS011;46188;52.324;8.032;2023-03-14T14:49:27;4.50;;;1.40;;
60344;SDS011;46188;52.324;8.032;2023-03-14T14:51:59;7.22;;;1.52;;
60344;SDS011;46188;52.324;8.032;2023-03-14T14:54:33;7.68;;;1.65;;
60344;SDS011;46188;52.324;8.032;2023-03-14T14:57:03;6.63;;;1.70;;
60344;SDS011;46188;52.324;8.032;2023-03-14T14:59:30;10.82;;;1.40;;
60344;SDS011;46188;52.324;8.032;2023-03-14T15:01:56;6.78;;;1.70;;
60344;SDS011;46188;52.324;8.032;2023-03-14T15:04:23;8.90;;;1.67;;
60344;SDS011;46188;52.324;8.032;2023-03-14T15:06:49;9.02;;;3.63;;
60344;SDS011;46188;52.324;8.032;2023-03-14T15:09:15;6.03;;;1.75;;
60344;SDS011;46188;52.324;8.032;2023-03-14T15:11:42;9.07;;;1.70;;
60344;SDS011;46188;52.324;8.032;2023-03-14T15:14:07;3.10;;;1.30;;
60344;SDS011;46188;52.324;8.032;2023-03-14T15:16:32;6.78;;;1.65;;
60344;SDS011;46188;52.324;8.032;2023-03-14T15:18:59;3.95;;;1.80;;
60344;SDS011;46188;52.324;8.032;2023-03-14T15:21:30;4.90;;;1.30;;
60344;SDS011;46188;52.324;8.032;2023-03-14T15:23:56;5.35;;;1.50;;
60344;SDS011;46188;52.324;8.032;2023-03-14T15:26:22;7.35;;;2.15;;
60344;SDS011;46188;52.324;8.032;2023-03-14T15:28:50;6.93;;;1.67;;
60344;SDS011;46188;52.324;8.032;2023-03-14T15:31:16;3.85;;;1.45;;
60344;SDS011;46188;52.324;8.032;2023-03-14T15:33:43;5.45;;;1.52;;
60344;SDS011;46188;52.324;8.032;2023-03-14T15:36:20;13.55;;;2.15;;
60344;SDS011;46188;52.324;8.032;2023-03-14T15:38:54;6.63;;;1.48;;
60344;SDS011;46188;52.324;8.032;2023-03-14T15:41:20;7.72;;;1.60;;
60344;SDS011;46188;52.324;8.032;2023-03-14T15:43:48;9.07;;;1.88;;
60344;SDS011;46188;52.324;8.032;2023-03-14T15:46:13;6.80;;;1.63;;
60344;SDS011;46188;52.324;8.032;2023-03-14T15:48:39;10.02;;;2.00;;